首页
METAR-TAF:

METAR-TAF

机场 :

达喀尔-约夫-利奥波德·塞达尔·桑戈尔国际机场

達喀爾, 塞内加尔

纬度: 14-44N, 经度: 017-30W, 海拔: 27米

当前天气观测

该预报发布于1小时和1分钟前的23:00 UTC
风速10节,风向北转西北
温度 23°C
湿度 89%
气压 1014 hPa
能見度: 8000
多云层高于1500英尺

METAR: GOOY 192300Z 34010KT 8000 BKN015 23/21 Q1014

时间: 00:01 (00:01 UTC)

预报

该预报发布于31分钟前的23:30 UTC
预报有效从20日的 00点(UTC)到 21日的 06点(UTC)
风速10节,风向北转西北
能见度10公里或以上
多云层高于1000英尺
成为
从 20日的 08点(UTC)到 20日的 10点(UTC)
散云层高于1200英尺

TAF: GOOY 192330Z 2000/2106 34010KT 9999 BKN010 BECMG 2008/2010 SCT012

超过4000个机场的气象观测和天气预报(METAR&TAF报告)。

可查询的气象台以黄色和红色小点在地图上表示。

将鼠标移到小点上方,可查看气象台名称。

然后点击查看天气观测和预报。

如需切换地图:点击带黑十字的绿色按钮放大地图;点击带横线的绿色按钮缩小地图;或者点击绿色箭头查看邻近地区的地图。


METAR-TAF: